sensor_id;sensor_type;location;lat;lon;timestamp;P1;durP1;ratioP1;P2;durP2;ratioP2
40623;SDS011;26325;48.594;11.650;2023-03-23T00:01:10;3.22;;;2.78;;
40623;SDS011;26325;48.594;11.650;2023-03-23T00:03:38;2.90;;;2.50;;
40623;SDS011;26325;48.594;11.650;2023-03-23T00:06:08;5.50;;;2.80;;
40623;SDS011;26325;48.594;11.650;2023-03-23T00:11:15;2.88;;;2.30;;
40623;SDS011;26325;48.594;11.650;2023-03-23T00:13:44;4.43;;;2.60;;
40623;SDS011;26325;48.594;11.650;2023-03-23T00:16:12;3.30;;;3.00;;
40623;SDS011;26325;48.594;11.650;2023-03-23T00:18:48;3.17;;;2.55;;
40623;SDS011;26325;48.594;11.650;2023-03-23T00:21:29;4.55;;;3.35;;
40623;SDS011;26325;48.594;11.650;2023-03-23T00:24:08;3.00;;;2.70;;
40623;SDS011;26325;48.594;11.650;2023-03-23T00:26:48;3.47;;;2.70;;
40623;SDS011;26325;48.594;11.650;2023-03-23T00:31:44;3.88;;;2.95;;
40623;SDS011;26325;48.594;11.650;2023-03-23T00:34:19;3.58;;;3.25;;
40623;SDS011;26325;48.594;11.650;2023-03-23T00:36:48;3.38;;;3.05;;
40623;SDS011;26325;48.594;11.650;2023-03-23T00:39:15;4.25;;;2.90;;
40623;SDS011;26325;48.594;11.650;2023-03-23T00:41:46;2.70;;;2.50;;
40623;SDS011;26325;48.594;11.650;2023-03-23T00:44:17;2.90;;;2.63;;
40623;SDS011;26325;48.594;11.650;2023-03-23T00:46:43;3.20;;;2.83;;
40623;SDS011;26325;48.594;11.650;2023-03-23T00:49:13;3.50;;;3.20;;
40623;SDS011;26325;48.594;11.650;2023-03-23T00:51:41;4.00;;;3.00;;
40623;SDS011;26325;48.594;11.650;2023-03-23T00:54:07;3.17;;;2.95;;
40623;SDS011;26325;48.594;11.650;2023-03-23T00:56:34;4.20;;;3.22;;
40623;SDS011;26325;48.594;11.650;2023-03-23T00:59:00;5.35;;;3.38;;
40623;SDS011;26325;48.594;11.650;2023-03-23T01:01:29;3.90;;;3.15;;
40623;SDS011;26325;48.594;11.650;2023-03-23T01:03:55;3.38;;;3.08;;
40623;SDS011;26325;48.594;11.650;2023-03-23T01:06:27;3.08;;;2.78;;
40623;SDS011;26325;48.594;11.650;2023-03-23T01:08:53;3.08;;;2.78;;
40623;SDS011;26325;48.594;11.650;2023-03-23T01:13:45;2.83;;;2.63;;
40623;SDS011;26325;48.594;11.650;2023-03-23T01:18:37;3.20;;;2.80;;
40623;SDS011;26325;48.594;11.650;2023-03-23T01:21:07;3.00;;;2.80;;
40623;SDS011;26325;48.594;11.650;2023-03-23T01:23:36;3.00;;;2.63;;
40623;SDS011;26325;48.594;11.650;2023-03-23T01:26:10;2.95;;;2.67;;
40623;SDS011;26325;48.594;11.650;2023-03-23T01:28:39;3.60;;;3.30;;
40623;SDS011;26325;48.594;11.650;2023-03-23T01:31:07;3.30;;;2.75;;
40623;SDS011;26325;48.594;11.650;2023-03-23T01:33:37;4.47;;;2.72;;
40623;SDS011;26325;48.594;11.650;2023-03-23T01:36:08;2.85;;;2.60;;
40623;SDS011;26325;48.594;11.650;2023-03-23T01:38:42;2.88;;;2.47;;
40623;SDS011;26325;48.594;11.650;2023-03-23T01:41:10;3.00;;;2.70;;
40623;SDS011;26325;48.594;11.650;2023-03-23T01:44:00;3.33;;;2.70;;
40623;SDS011;26325;48.594;11.650;2023-03-23T01:46:32;3.05;;;2.38;;
40623;SDS011;26325;48.594;11.650;2023-03-23T01:49:04;3.15;;;2.67;;
40623;SDS011;26325;48.594;11.650;2023-03-23T01:51:36;2.58;;;2.38;;
40623;SDS011;26325;48.594;11.650;2023-03-23T01:54:11;2.78;;;2.58;;
40623;SDS011;26325;48.594;11.650;2023-03-23T01:56:59;2.90;;;2.35;;
40623;SDS011;26325;48.594;11.650;2023-03-23T01:59:28;3.28;;;2.67;;
40623;SDS011;26325;48.594;11.650;2023-03-23T02:01:55;3.08;;;2.78;;
40623;SDS011;26325;48.594;11.650;2023-03-23T02:06:48;4.35;;;2.80;;
40623;SDS011;26325;48.594;11.650;2023-03-23T02:11:43;3.75;;;3.05;;
40623;SDS011;26325;48.594;11.650;2023-03-23T02:14:10;3.05;;;2.75;;
40623;SDS011;26325;48.594;11.650;2023-03-23T02:16:57;3.15;;;2.85;;
40623;SDS011;26325;48.594;11.650;2023-03-23T02:22:11;5.63;;;3.47;;
40623;SDS011;26325;48.594;11.650;2023-03-23T02:38:45;5.20;;;3.65;;
40623;SDS011;26325;48.594;11.650;2023-03-23T02:41:19;5.32;;;3.53;;
40623;SDS011;26325;48.594;11.650;2023-03-23T02:43:50;5.53;;;4.28;;
40623;SDS011;26325;48.594;11.650;2023-03-23T02:46:16;5.72;;;3.97;;
40623;SDS011;26325;48.594;11.650;2023-03-23T02:48:44;6.53;;;4.07;;
40623;SDS011;26325;48.594;11.650;2023-03-23T02:51:13;7.57;;;4.15;;
40623;SDS011;26325;48.594;11.650;2023-03-23T02:53:41;4.63;;;3.70;;
40623;SDS011;26325;48.594;11.650;2023-03-23T02:56:11;5.97;;;3.70;;
40623;SDS011;26325;48.594;11.650;2023-03-23T02:58:39;7.72;;;4.22;;
40623;SDS011;26325;48.594;11.650;2023-03-23T03:03:51;8.18;;;4.35;;
40623;SDS011;26325;48.594;11.650;2023-03-23T03:07:24;8.75;;;4.20;;
40623;SDS011;26325;48.594;11.650;2023-03-23T03:09:48;6.28;;;3.58;;
40623;SDS011;26325;48.594;11.650;2023-03-23T03:13:30;5.15;;;4.18;;
40623;SDS011;26325;48.594;11.650;2023-03-23T03:15:33;5.85;;;3.90;;
40623;SDS011;26325;48.594;11.650;2023-03-23T03:18:18;4.90;;;4.13;;
40623;SDS011;26325;48.594;11.650;2023-03-23T03:20:59;5.78;;;4.10;;
40623;SDS011;26325;48.594;11.650;2023-03-23T03:23:29;6.63;;;4.50;;
40623;SDS011;26325;48.594;11.650;2023-03-23T03:25:57;5.50;;;4.30;;
40623;SDS011;26325;48.594;11.650;2023-03-23T03:28:24;4.65;;;3.95;;
40623;SDS011;26325;48.594;11.650;2023-03-23T03:30:56;5.75;;;4.15;;
40623;SDS011;26325;48.594;11.650;2023-03-23T03:33:26;5.55;;;3.92;;
40623;SDS011;26325;48.594;11.650;2023-03-23T03:35:57;6.35;;;3.92;;
40623;SDS011;26325;48.594;11.650;2023-03-23T03:38:26;4.38;;;3.92;;
40623;SDS011;26325;48.594;11.650;2023-03-23T03:40:53;5.43;;;3.90;;
40623;SDS011;26325;48.594;11.650;2023-03-23T03:43:19;3.97;;;3.60;;
40623;SDS011;26325;48.594;11.650;2023-03-23T03:45:45;4.65;;;3.70;;
40623;SDS011;26325;48.594;11.650;2023-03-23T03:50:37;3.88;;;3.47;;
40623;SDS011;26325;48.594;11.650;2023-03-23T03:55:28;4.10;;;3.70;;
40623;SDS011;26325;48.594;11.650;2023-03-23T04:00:23;4.05;;;3.30;;
40623;SDS011;26325;48.594;11.650;2023-03-23T04:02:49;4.38;;;3.38;;
40623;SDS011;26325;48.594;11.650;2023-03-23T04:05:23;4.15;;;3.75;;
40623;SDS011;26325;48.594;11.650;2023-03-23T04:07:50;6.85;;;4.28;;
40623;SDS011;26325;48.594;11.650;2023-03-23T04:10:17;4.13;;;3.70;;
40623;SDS011;26325;48.594;11.650;2023-03-23T04:12:48;4.22;;;3.90;;
40623;SDS011;26325;48.594;11.650;2023-03-23T04:15:14;3.92;;;3.53;;
40623;SDS011;26325;48.594;11.650;2023-03-23T04:17:43;4.40;;;4.00;;
40623;SDS011;26325;48.594;11.650;2023-03-23T04:20:09;6.20;;;4.20;;
40623;SDS011;26325;48.594;11.650;2023-03-23T04:22:46;4.43;;;3.88;;
40623;SDS011;26325;48.594;11.650;2023-03-23T04:25:16;4.88;;;3.72;;
40623;SDS011;26325;48.594;11.650;2023-03-23T04:27:46;4.15;;;3.75;;
40623;SDS011;26325;48.594;11.650;2023-03-23T04:30:19;4.40;;;3.95;;
40623;SDS011;26325;48.594;11.650;2023-03-23T04:32:48;5.20;;;4.30;;
40623;SDS011;26325;48.594;11.650;2023-03-23T04:35:21;4.05;;;3.70;;
40623;SDS011;26325;48.594;11.650;2023-03-23T04:37:51;4.75;;;4.35;;
40623;SDS011;26325;48.594;11.650;2023-03-23T04:40:19;4.43;;;4.10;;
40623;SDS011;26325;48.594;11.650;2023-03-23T04:42:45;4.50;;;4.10;;
40623;SDS011;26325;48.594;11.650;2023-03-23T04:45:13;4.78;;;4.25;;
40623;SDS011;26325;48.594;11.650;2023-03-23T04:47:41;4.55;;;4.10;;
40623;SDS011;26325;48.594;11.650;2023-03-23T04:50:09;4.40;;;4.00;;
40623;SDS011;26325;48.594;11.650;2023-03-23T04:52:37;4.35;;;3.95;;
40623;SDS011;26325;48.594;11.650;2023-03-23T04:55:07;4.10;;;3.80;;
40623;SDS011;26325;48.594;11.650;2023-03-23T04:57:34;4.50;;;4.10;;
40623;SDS011;26325;48.594;11.650;2023-03-23T05:00:01;5.00;;;4.30;;
40623;SDS011;26325;48.594;11.650;2023-03-23T05:02:37;4.07;;;3.78;;
40623;SDS011;26325;48.594;11.650;2023-03-23T05:05:08;3.92;;;3.60;;
40623;SDS011;26325;48.594;11.650;2023-03-23T05:07:39;4.30;;;3.90;;
40623;SDS011;26325;48.594;11.650;2023-03-23T05:10:06;3.70;;;3.40;;
40623;SDS011;26325;48.594;11.650;2023-03-23T05:12:34;3.58;;;3.28;;
40623;SDS011;26325;48.594;11.650;2023-03-23T05:17:25;4.32;;;3.92;;
40623;SDS011;26325;48.594;11.650;2023-03-23T05:19:52;3.95;;;3.50;;
40623;SDS011;26325;48.594;11.650;2023-03-23T05:22:18;4.90;;;3.70;;
40623;SDS011;26325;48.594;11.650;2023-03-23T05:24:46;3.88;;;3.58;;
40623;SDS011;26325;48.594;11.650;2023-03-23T05:27:12;4.00;;;3.15;;
40623;SDS011;26325;48.594;11.650;2023-03-23T05:29:40;4.43;;;3.75;;
40623;SDS011;26325;48.594;11.650;2023-03-23T05:32:09;4.43;;;4.03;;
40623;SDS011;26325;48.594;11.650;2023-03-23T05:34:37;4.05;;;3.67;;
40623;SDS011;26325;48.594;11.650;2023-03-23T05:39:30;3.92;;;3.60;;
40623;SDS011;26325;48.594;11.650;2023-03-23T05:41:56;3.90;;;3.60;;
40623;SDS011;26325;48.594;11.650;2023-03-23T05:44:24;3.80;;;3.50;;
40623;SDS011;26325;48.594;11.650;2023-03-23T05:49:16;3.60;;;3.30;;
40623;SDS011;26325;48.594;11.650;2023-03-23T05:51:43;3.08;;;2.78;;
40623;SDS011;26325;48.594;11.650;2023-03-23T05:54:09;2.50;;;2.30;;
40623;SDS011;26325;48.594;11.650;2023-03-23T05:56:36;2.50;;;2.30;;
40623;SDS011;26325;48.594;11.650;2023-03-23T05:59:04;2.53;;;2.25;;
40623;SDS011;26325;48.594;11.650;2023-03-23T06:01:30;2.60;;;2.22;;
40623;SDS011;26325;48.594;11.650;2023-03-23T06:03:56;2.60;;;2.40;;
40623;SDS011;26325;48.594;11.650;2023-03-23T06:06:28;2.80;;;2.50;;
40623;SDS011;26325;48.594;11.650;2023-03-23T06:08:56;3.00;;;2.80;;
40623;SDS011;26325;48.594;11.650;2023-03-23T06:11:26;2.63;;;2.42;;
40623;SDS011;26325;48.594;11.650;2023-03-23T06:13:53;2.60;;;2.40;;
40623;SDS011;26325;48.594;11.650;2023-03-23T06:16:33;2.67;;;2.47;;
40623;SDS011;26325;48.594;11.650;2023-03-23T06:19:14;2.67;;;2.47;;
40623;SDS011;26325;48.594;11.650;2023-03-23T06:21:44;2.70;;;2.50;;
40623;SDS011;26325;48.594;11.650;2023-03-23T06:24:12;3.38;;;3.08;;
40623;SDS011;26325;48.594;11.650;2023-03-23T06:29:06;3.35;;;3.00;;
40623;SDS011;26325;48.594;11.650;2023-03-23T06:31:38;4.13;;;3.35;;
40623;SDS011;26325;48.594;11.650;2023-03-23T06:34:32;3.47;;;3.17;;
40623;SDS011;26325;48.594;11.650;2023-03-23T06:37:00;3.83;;;3.53;;
40623;SDS011;26325;48.594;11.650;2023-03-23T06:39:29;3.47;;;3.17;;
40623;SDS011;26325;48.594;11.650;2023-03-23T06:41:57;3.60;;;3.30;;
40623;SDS011;26325;48.594;11.650;2023-03-23T06:44:25;4.03;;;3.63;;
40623;SDS011;26325;48.594;11.650;2023-03-23T06:46:51;3.88;;;3.47;;
40623;SDS011;26325;48.594;11.650;2023-03-23T06:51:42;3.65;;;3.17;;
40623;SDS011;26325;48.594;11.650;2023-03-23T06:56:33;3.75;;;3.40;;
40623;SDS011;26325;48.594;11.650;2023-03-23T06:59:04;4.10;;;3.70;;
40623;SDS011;26325;48.594;11.650;2023-03-23T07:01:34;3.65;;;3.33;;
40623;SDS011;26325;48.594;11.650;2023-03-23T07:04:08;4.20;;;3.80;;
40623;SDS011;26325;48.594;11.650;2023-03-23T07:06:34;3.60;;;3.30;;
40623;SDS011;26325;48.594;11.650;2023-03-23T07:11:27;4.05;;;3.58;;
40623;SDS011;26325;48.594;11.650;2023-03-23T07:14:00;3.67;;;3.38;;
40623;SDS011;26325;48.594;11.650;2023-03-23T07:16:35;3.88;;;3.30;;
40623;SDS011;26325;48.594;11.650;2023-03-23T07:19:05;4.97;;;3.67;;
40623;SDS011;26325;48.594;11.650;2023-03-23T07:21:47;3.33;;;3.03;;
40623;SDS011;26325;48.594;11.650;2023-03-23T07:24:33;3.63;;;3.25;;
40623;SDS011;26325;48.594;11.650;2023-03-23T07:27:00;3.78;;;3.47;;
40623;SDS011;26325;48.594;11.650;2023-03-23T07:29:41;3.70;;;3.40;;
40623;SDS011;26325;48.594;11.650;2023-03-23T07:32:10;3.40;;;3.10;;
40623;SDS011;26325;48.594;11.650;2023-03-23T07:34:37;3.90;;;3.20;;
40623;SDS011;26325;48.594;11.650;2023-03-23T07:37:03;3.65;;;3.35;;
40623;SDS011;26325;48.594;11.650;2023-03-23T07:39:29;2.85;;;2.65;;
40623;SDS011;26325;48.594;11.650;2023-03-23T07:44:22;2.87;;;2.67;;
40623;SDS011;26325;48.594;11.650;2023-03-23T07:49:15;3.28;;;3.03;;
40623;SDS011;26325;48.594;11.650;2023-03-23T07:51:50;3.05;;;2.75;;
40623;SDS011;26325;48.594;11.650;2023-03-23T07:54:23;3.35;;;3.05;;
40623;SDS011;26325;48.594;11.650;2023-03-23T07:56:54;3.28;;;2.97;;
40623;SDS011;26325;48.594;11.650;2023-03-23T07:59:22;3.75;;;2.72;;
40623;SDS011;26325;48.594;11.650;2023-03-23T08:01:48;3.75;;;2.92;;
40623;SDS011;26325;48.594;11.650;2023-03-23T08:06:40;3.60;;;3.13;;
40623;SDS011;26325;48.594;11.650;2023-03-23T08:11:36;3.50;;;2.80;;
40623;SDS011;26325;48.594;11.650;2023-03-23T08:14:04;3.53;;;3.22;;
40623;SDS011;26325;48.594;11.650;2023-03-23T08:16:31;3.50;;;3.17;;
40623;SDS011;26325;48.594;11.650;2023-03-23T08:19:07;3.33;;;3.03;;
40623;SDS011;26325;48.594;11.650;2023-03-23T08:21:34;3.22;;;2.80;;
40623;SDS011;26325;48.594;11.650;2023-03-23T08:24:10;4.80;;;2.72;;
40623;SDS011;26325;48.594;11.650;2023-03-23T08:26:38;4.53;;;3.10;;
40623;SDS011;26325;48.594;11.650;2023-03-23T08:29:09;3.17;;;2.88;;
40623;SDS011;26325;48.594;11.650;2023-03-23T08:34:03;3.45;;;2.90;;
40623;SDS011;26325;48.594;11.650;2023-03-23T08:36:33;3.47;;;3.17;;
40623;SDS011;26325;48.594;11.650;2023-03-23T08:39:04;3.78;;;2.85;;
40623;SDS011;26325;48.594;11.650;2023-03-23T08:41:32;3.40;;;2.90;;
40623;SDS011;26325;48.594;11.650;2023-03-23T08:43:58;3.28;;;2.97;;
40623;SDS011;26325;48.594;11.650;2023-03-23T08:48:53;4.32;;;2.63;;
40623;SDS011;26325;48.594;11.650;2023-03-23T08:54:23;3.00;;;2.63;;
40623;SDS011;26325;48.594;11.650;2023-03-23T08:59:14;3.78;;;2.90;;
40623;SDS011;26325;48.594;11.650;2023-03-23T09:04:18;4.72;;;2.97;;
40623;SDS011;26325;48.594;11.650;2023-03-23T09:06:45;2.60;;;2.40;;
40623;SDS011;26325;48.594;11.650;2023-03-23T09:09:17;3.28;;;2.97;;
40623;SDS011;26325;48.594;11.650;2023-03-23T09:11:54;3.22;;;2.83;;
40623;SDS011;26325;48.594;11.650;2023-03-23T09:14:23;2.88;;;2.67;;
40623;SDS011;26325;48.594;11.650;2023-03-23T09:16:49;2.92;;;2.70;;
40623;SDS011;26325;48.594;11.650;2023-03-23T09:21:55;3.40;;;2.65;;
40623;SDS011;26325;48.594;11.650;2023-03-23T09:24:21;2.90;;;2.60;;
40623;SDS011;26325;48.594;11.650;2023-03-23T09:29:19;3.70;;;2.58;;
40623;SDS011;26325;48.594;11.650;2023-03-23T09:31:54;3.20;;;2.90;;
40623;SDS011;26325;48.594;11.650;2023-03-23T09:34:29;2.60;;;2.40;;
40623;SDS011;26325;48.594;11.650;2023-03-23T09:37:04;2.72;;;2.42;;
40623;SDS011;26325;48.594;11.650;2023-03-23T09:39:37;2.80;;;2.45;;
40623;SDS011;26325;48.594;11.650;2023-03-23T09:50:34;2.92;;;2.72;;
40623;SDS011;26325;48.594;11.650;2023-03-23T09:53:05;2.63;;;2.42;;
40623;SDS011;26325;48.594;11.650;2023-03-23T09:55:43;3.05;;;2.60;;
40623;SDS011;26325;48.594;11.650;2023-03-23T09:58:31;2.53;;;2.30;;
40623;SDS011;26325;48.594;11.650;2023-03-23T10:01:35;2.40;;;2.20;;
40623;SDS011;26325;48.594;11.650;2023-03-23T10:04:24;2.30;;;2.10;;
40623;SDS011;26325;48.594;11.650;2023-03-23T10:06:59;4.30;;;2.13;;
40623;SDS011;26325;48.594;11.650;2023-03-23T10:09:33;2.53;;;2.30;;
40623;SDS011;26325;48.594;11.650;2023-03-23T10:15:18;2.35;;;2.00;;
40623;SDS011;26325;48.594;11.650;2023-03-23T10:25:51;2.83;;;2.22;;
40623;SDS011;26325;48.594;11.650;2023-03-23T10:28:36;2.58;;;2.10;;
40623;SDS011;26325;48.594;11.650;2023-03-23T10:31:44;2.03;;;1.83;;
40623;SDS011;26325;48.594;11.650;2023-03-23T10:34:25;1.85;;;1.75;;
40623;SDS011;26325;48.594;11.650;2023-03-23T10:36:59;2.00;;;1.70;;
40623;SDS011;26325;48.594;11.650;2023-03-23T10:39:40;1.85;;;1.65;;
40623;SDS011;26325;48.594;11.650;2023-03-23T10:51:16;2.00;;;1.83;;
40623;SDS011;26325;48.594;11.650;2023-03-23T10:53:58;2.20;;;1.90;;
40623;SDS011;26325;48.594;11.650;2023-03-23T10:56:29;2.00;;;1.73;;
40623;SDS011;26325;48.594;11.650;2023-03-23T10:59:27;2.60;;;1.98;;
40623;SDS011;26325;48.594;11.650;2023-03-23T11:01:57;2.05;;;1.85;;
40623;SDS011;26325;48.594;11.650;2023-03-23T11:04:25;1.60;;;1.50;;
40623;SDS011;26325;48.594;11.650;2023-03-23T11:06:53;2.35;;;1.90;;
40623;SDS011;26325;48.594;11.650;2023-03-23T11:09:54;1.77;;;1.67;;
40623;SDS011;26325;48.594;11.650;2023-03-23T11:12:24;1.70;;;1.60;;
40623;SDS011;26325;48.594;11.650;2023-03-23T11:14:50;1.80;;;1.70;;
40623;SDS011;26325;48.594;11.650;2023-03-23T11:19:53;3.20;;;1.40;;
40623;SDS011;26325;48.594;11.650;2023-03-23T11:22:32;1.65;;;1.55;;
40623;SDS011;26325;48.594;11.650;2023-03-23T11:25:03;2.00;;;1.60;;
40623;SDS011;26325;48.594;11.650;2023-03-23T11:27:30;1.85;;;1.75;;
40623;SDS011;26325;48.594;11.650;2023-03-23T11:30:11;2.10;;;1.90;;
40623;SDS011;26325;48.594;11.650;2023-03-23T11:32:59;1.77;;;1.40;;
40623;SDS011;26325;48.594;11.650;2023-03-23T11:35:28;1.98;;;1.60;;
40623;SDS011;26325;48.594;11.650;2023-03-23T11:38:00;1.83;;;1.73;;
40623;SDS011;26325;48.594;11.650;2023-03-23T11:40:44;2.03;;;1.63;;
40623;SDS011;26325;48.594;11.650;2023-03-23T11:43:17;2.10;;;1.70;;
40623;SDS011;26325;48.594;11.650;2023-03-23T11:51:21;1.88;;;1.73;;
40623;SDS011;26325;48.594;11.650;2023-03-23T11:59:29;2.28;;;2.08;;
40623;SDS011;26325;48.594;11.650;2023-03-23T12:05:47;2.50;;;1.85;;
40623;SDS011;26325;48.594;11.650;2023-03-23T12:39:08;2.45;;;1.63;;
40623;SDS011;26325;48.594;11.650;2023-03-23T12:41:50;2.67;;;1.77;;
40623;SDS011;26325;48.594;11.650;2023-03-23T12:44:21;2.90;;;1.70;;
40623;SDS011;26325;48.594;11.650;2023-03-23T12:50:23;1.48;;;1.38;;
40623;SDS011;26325;48.594;11.650;2023-03-23T12:53:14;1.90;;;1.48;;
40623;SDS011;26325;48.594;11.650;2023-03-23T12:56:06;2.42;;;1.50;;
40623;SDS011;26325;48.594;11.650;2023-03-23T12:58:53;1.70;;;1.60;;
40623;SDS011;26325;48.594;11.650;2023-03-23T13:01:47;2.25;;;1.70;;
40623;SDS011;26325;48.594;11.650;2023-03-23T13:04:35;1.73;;;1.50;;
40623;SDS011;26325;48.594;11.650;2023-03-23T13:07:10;2.20;;;1.50;;
40623;SDS011;26325;48.594;11.650;2023-03-23T13:09:58;2.00;;;1.80;;
40623;SDS011;26325;48.594;11.650;2023-03-23T13:16:07;1.55;;;1.45;;
40623;SDS011;26325;48.594;11.650;2023-03-23T13:19:00;1.48;;;1.38;;
40623;SDS011;26325;48.594;11.650;2023-03-23T13:25:03;1.80;;;1.40;;
40623;SDS011;26325;48.594;11.650;2023-03-23T13:27:41;2.92;;;1.65;;
40623;SDS011;26325;48.594;11.650;2023-03-23T13:30:18;1.75;;;1.65;;
40623;SDS011;26325;48.594;11.650;2023-03-23T13:33:11;1.48;;;1.38;;
40623;SDS011;26325;48.594;11.650;2023-03-23T13:35:40;2.60;;;1.48;;
40623;SDS011;26325;48.594;11.650;2023-03-23T13:38:34;1.92;;;1.77;;
40623;SDS011;26325;48.594;11.650;2023-03-23T13:41:10;1.67;;;1.50;;
40623;SDS011;26325;48.594;11.650;2023-03-23T13:43:41;3.10;;;1.85;;
40623;SDS011;26325;48.594;11.650;2023-03-23T13:48:50;1.40;;;1.30;;
40623;SDS011;26325;48.594;11.650;2023-03-23T13:51:56;2.00;;;1.48;;
40623;SDS011;26325;48.594;11.650;2023-03-23T13:54:32;1.63;;;1.52;;
40623;SDS011;26325;48.594;11.650;2023-03-23T14:00:11;1.90;;;1.80;;
40623;SDS011;26325;48.594;11.650;2023-03-23T14:11:09;3.33;;;1.77;;
40623;SDS011;26325;48.594;11.650;2023-03-23T14:16:41;3.22;;;2.00;;
40623;SDS011;26325;48.594;11.650;2023-03-23T14:19:26;1.90;;;1.70;;
40623;SDS011;26325;48.594;11.650;2023-03-23T14:21:58;2.35;;;1.70;;
40623;SDS011;26325;48.594;11.650;2023-03-23T14:24:32;3.25;;;2.38;;
40623;SDS011;26325;48.594;11.650;2023-03-23T14:29:30;2.28;;;1.70;;
40623;SDS011;26325;48.594;11.650;2023-03-23T14:31:57;2.10;;;1.90;;
40623;SDS011;26325;48.594;11.650;2023-03-23T14:34:29;1.45;;;1.33;;
40623;SDS011;26325;48.594;11.650;2023-03-23T14:37:00;1.70;;;1.60;;
40623;SDS011;26325;48.594;11.650;2023-03-23T14:39:30;2.10;;;1.95;;
40623;SDS011;26325;48.594;11.650;2023-03-23T14:42:09;1.80;;;1.67;;
40623;SDS011;26325;48.594;11.650;2023-03-23T14:44:46;2.03;;;1.83;;
40623;SDS011;26325;48.594;11.650;2023-03-23T14:47:24;3.53;;;1.83;;
40623;SDS011;26325;48.594;11.650;2023-03-23T14:49:56;1.73;;;1.63;;
40623;SDS011;26325;48.594;11.650;2023-03-23T14:52:33;1.88;;;1.73;;
40623;SDS011;26325;48.594;11.650;2023-03-23T14:55:14;2.20;;;2.00;;
40623;SDS011;26325;48.594;11.650;2023-03-23T14:57:47;3.63;;;1.90;;
40623;SDS011;26325;48.594;11.650;2023-03-23T15:00:14;2.10;;;1.80;;
40623;SDS011;26325;48.594;11.650;2023-03-23T15:02:49;1.70;;;1.60;;
40623;SDS011;26325;48.594;11.650;2023-03-23T15:05:29;1.80;;;1.70;;
40623;SDS011;26325;48.594;11.650;2023-03-23T15:08:19;2.95;;;2.00;;
40623;SDS011;26325;48.594;11.650;2023-03-23T15:10:59;2.00;;;1.90;;
40623;SDS011;26325;48.594;11.650;2023-03-23T15:13:26;3.05;;;2.03;;
40623;SDS011;26325;48.594;11.650;2023-03-23T15:18:29;5.00;;;2.30;;
40623;SDS011;26325;48.594;11.650;2023-03-23T15:20:59;2.05;;;1.85;;
40623;SDS011;26325;48.594;11.650;2023-03-23T15:23:41;2.60;;;1.90;;
40623;SDS011;26325;48.594;11.650;2023-03-23T15:26:43;2.28;;;1.98;;
40623;SDS011;26325;48.594;11.650;2023-03-23T15:29:14;1.80;;;1.70;;
40623;SDS011;26325;48.594;11.650;2023-03-23T15:31:46;2.47;;;1.65;;
40623;SDS011;26325;48.594;11.650;2023-03-23T15:34:36;2.50;;;1.73;;
40623;SDS011;26325;48.594;11.650;2023-03-23T15:37:21;2.10;;;1.70;;
40623;SDS011;26325;48.594;11.650;2023-03-23T15:39:55;1.63;;;1.52;;
40623;SDS011;26325;48.594;11.650;2023-03-23T15:42:33;2.53;;;1.73;;
40623;SDS011;26325;48.594;11.650;2023-03-23T15:50:16;1.77;;;1.58;;
40623;SDS011;26325;48.594;11.650;2023-03-23T15:52:43;1.58;;;1.48;;
40623;SDS011;26325;48.594;11.650;2023-03-23T15:57:53;1.67;;;1.42;;
40623;SDS011;26325;48.594;11.650;2023-03-23T16:00:21;1.67;;;1.50;;
40623;SDS011;26325;48.594;11.650;2023-03-23T16:02:54;1.70;;;1.60;;
40623;SDS011;26325;48.594;11.650;2023-03-23T16:05:26;2.75;;;1.92;;
40623;SDS011;26325;48.594;11.650;2023-03-23T16:07:54;2.53;;;1.88;;
40623;SDS011;26325;48.594;11.650;2023-03-23T16:10:26;3.72;;;1.65;;
40623;SDS011;26325;48.594;11.650;2023-03-23T16:12:53;2.60;;;1.60;;
40623;SDS011;26325;48.594;11.650;2023-03-23T16:17:45;2.30;;;1.85;;
40623;SDS011;26325;48.594;11.650;2023-03-23T16:20:19;4.07;;;1.80;;
40623;SDS011;26325;48.594;11.650;2023-03-23T16:22:47;2.80;;;1.93;;
40623;SDS011;26325;48.594;11.650;2023-03-23T16:25:14;3.35;;;2.20;;
40623;SDS011;26325;48.594;11.650;2023-03-23T16:27:42;2.53;;;2.00;;
40623;SDS011;26325;48.594;11.650;2023-03-23T16:30:21;2.00;;;1.88;;
40623;SDS011;26325;48.594;11.650;2023-03-23T16:32:51;1.83;;;1.73;;
40623;SDS011;26325;48.594;11.650;2023-03-23T16:35:17;2.45;;;2.00;;
40623;SDS011;26325;48.594;11.650;2023-03-23T16:37:45;2.22;;;2.03;;
40623;SDS011;26325;48.594;11.650;2023-03-23T16:40:13;2.20;;;2.00;;
40623;SDS011;26325;48.594;11.650;2023-03-23T16:42:42;2.63;;;2.42;;
40623;SDS011;26325;48.594;11.650;2023-03-23T16:45:14;2.20;;;2.00;;
40623;SDS011;26325;48.594;11.650;2023-03-23T16:47:40;2.05;;;1.95;;
40623;SDS011;26325;48.594;11.650;2023-03-23T16:50:11;2.22;;;2.03;;
40623;SDS011;26325;48.594;11.650;2023-03-23T16:52:43;3.38;;;2.25;;
40623;SDS011;26325;48.594;11.650;2023-03-23T16:55:13;2.35;;;2.15;;
40623;SDS011;26325;48.594;11.650;2023-03-23T16:57:43;3.17;;;2.10;;
40623;SDS011;26325;48.594;11.650;2023-03-23T17:02:41;2.30;;;2.10;;
40623;SDS011;26325;48.594;11.650;2023-03-23T17:05:09;2.40;;;2.20;;
40623;SDS011;26325;48.594;11.650;2023-03-23T17:07:37;2.42;;;2.22;;
40623;SDS011;26325;48.594;11.650;2023-03-23T17:10:07;2.40;;;2.10;;
40623;SDS011;26325;48.594;11.650;2023-03-23T17:12:34;3.05;;;2.22;;
40623;SDS011;26325;48.594;11.650;2023-03-23T17:17:26;3.28;;;2.10;;
40623;SDS011;26325;48.594;11.650;2023-03-23T17:19:54;2.53;;;2.20;;
40623;SDS011;26325;48.594;11.650;2023-03-23T17:22:21;2.45;;;2.10;;
40623;SDS011;26325;48.594;11.650;2023-03-23T17:24:49;2.40;;;2.20;;
40623;SDS011;26325;48.594;11.650;2023-03-23T17:29:42;2.42;;;2.22;;
40623;SDS011;26325;48.594;11.650;2023-03-23T17:32:08;2.60;;;2.40;;
40623;SDS011;26325;48.594;11.650;2023-03-23T17:34:34;3.13;;;2.22;;
40623;SDS011;26325;48.594;11.650;2023-03-23T17:37:01;2.63;;;2.13;;
40623;SDS011;26325;48.594;11.650;2023-03-23T17:39:30;3.95;;;2.20;;
40623;SDS011;26325;48.594;11.650;2023-03-23T17:42:00;2.40;;;2.17;;
40623;SDS011;26325;48.594;11.650;2023-03-23T17:44:26;3.42;;;2.30;;
40623;SDS011;26325;48.594;11.650;2023-03-23T17:46:53;2.92;;;2.60;;
40623;SDS011;26325;48.594;11.650;2023-03-23T17:49:21;2.42;;;2.22;;
40623;SDS011;26325;48.594;11.650;2023-03-23T17:51:48;3.05;;;2.58;;
40623;SDS011;26325;48.594;11.650;2023-03-23T17:54:14;4.22;;;2.80;;
40623;SDS011;26325;48.594;11.650;2023-03-23T17:59:05;4.45;;;2.40;;
40623;SDS011;26325;48.594;11.650;2023-03-23T18:01:32;2.47;;;2.28;;
40623;SDS011;26325;48.594;11.650;2023-03-23T18:03:58;2.97;;;2.20;;
40623;SDS011;26325;48.594;11.650;2023-03-23T18:08:49;3.20;;;2.40;;
40623;SDS011;26325;48.594;11.650;2023-03-23T18:11:15;2.60;;;2.30;;
40623;SDS011;26325;48.594;11.650;2023-03-23T18:16:06;2.88;;;2.60;;
40623;SDS011;26325;48.594;11.650;2023-03-23T18:18:32;3.20;;;2.55;;
40623;SDS011;26325;48.594;11.650;2023-03-23T18:23:26;2.53;;;2.33;;
40623;SDS011;26325;48.594;11.650;2023-03-23T18:25:52;5.65;;;2.40;;
40623;SDS011;26325;48.594;11.650;2023-03-23T18:28:21;2.50;;;2.30;;
40623;SDS011;26325;48.594;11.650;2023-03-23T18:30:49;2.78;;;2.58;;
40623;SDS011;26325;48.594;11.650;2023-03-23T18:35:41;2.53;;;2.33;;
40623;SDS011;26325;48.594;11.650;2023-03-23T18:40:33;2.63;;;2.40;;
40623;SDS011;26325;48.594;11.650;2023-03-23T18:43:08;2.55;;;2.38;;
40623;SDS011;26325;48.594;11.650;2023-03-23T18:45:34;2.97;;;2.33;;
40623;SDS011;26325;48.594;11.650;2023-03-23T18:50:28;2.80;;;2.60;;
40623;SDS011;26325;48.594;11.650;2023-03-23T18:55:19;3.10;;;2.70;;